Terminal Aerodrome Forecast
Issued by NWS

Home | Current Version | Previous Version | Text Only | Print | Product List | Glossary On
Versions: 1 2 3 4 5 6 7 8 9 10 11 12 13
906
FTAK31 PAJN 300522
TAFAKT
TAF
PAKT 300522Z 3006/3106 12006KT P6SM -SHRA FEW010 BKN025 OVC030
     FM301500 14008KT P6SM -SHRA BKN025 OVC050
      AMD LTD TO CLD VIS AND WIND 3006/3015=

USA.gov is the U.S. government's official web portal to all federal, state and local government web resources and services.